Time;durP1;ratioP1;P1;durP2;ratioP2;P2;SDS_P1;SDS_P2;PMS_P1;PMS_P2;Temp;Humidity;BMP_temperature;BMP_pressure;BME280_temperature;BME280_humidity;BME280_pressure;Samples;Min_cycle;Max_cycle;Signal;HPM_P1;HPM_P2
2022/08/26 00:08:32;;;;;;;;;;;21.20;99.90;;;;;;6307416;22;19910;-82
2022/08/26 00:11:19;;;;;;;;;;;21.20;99.90;;;;;;6307634;22;19921;-83
2022/08/26 00:14:01;;;;;;;;;;;21.20;99.90;;;;;;6282583;22;19918;-82
2022/08/26 00:16:49;;;;;;;;;;;;;;;;;;;;;
2022/08/26 00:19:25;;;;;;;;;;;21.20;99.90;;;;;;6307473;22;19922;-82
2022/08/26 00:22:07;;;;;;;;;;;21.20;99.90;;;;;;6306113;22;19925;-83
2022/08/26 00:24:47;;;;;;;;;;;21.10;99.90;;;;;;6306938;22;19915;-82
2022/08/26 00:27:24;;;;;;;;;;;21.10;99.90;;;;;;6307785;22;20231;-82
2022/08/26 00:30:11;;;;;;;;;;;21.10;99.90;;;;;;6308016;22;19950;-82
2022/08/26 00:32:54;;;;;;;;;;;21.10;99.90;;;;;;6307567;22;19914;-82
2022/08/26 00:35:24;;;;;;;;;;;21.10;99.90;;;;;;6307160;22;19918;-82
2022/08/26 00:38:09;;;;;;;;;;;;;;;;;;;;;
2022/08/26 00:40:49;;;;;;;;;;;21.10;99.90;;;;;;6306750;22;19915;-82
2022/08/26 00:43:41;;;;;;;;;;;21.10;99.90;;;;;;6306859;22;19951;-83
2022/08/26 00:46:27;;;;;;;;;;;21.20;99.90;;;;;;6307741;22;20337;-82
2022/08/26 00:49:18;;;;;;;;;;;21.30;99.90;;;;;;6306996;22;19922;-82
2022/08/26 00:51:55;;;;;;;;;;;21.30;99.90;;;;;;6306527;22;19994;-82
2022/08/26 00:54:39;;;;;;;;;;;21.20;99.90;;;;;;6227435;22;19961;-83
2022/08/26 00:57:30;;;;;;;;;;;21.20;99.90;;;;;;6306689;22;20338;-83
2022/08/26 01:00:13;;;;;;;;;;;21.20;99.90;;;;;;6253705;22;19942;-82
2022/08/26 01:03:12;;;;;;;;;;;;;;;;;;;;;
2022/08/26 01:05:51;;;;;;;;;;;21.20;99.90;;;;;;6307257;22;19934;-82
2022/08/26 01:08:28;;;;;;;;;;;20.90;99.90;;;;;;6307163;22;20289;-81
2022/08/26 01:11:07;;;;;;;;;;;21.20;99.90;;;;;;6306701;22;19927;-82
2022/08/26 01:13:42;;;;;;;;;;;21.30;99.90;;;;;;6306580;22;19919;-82
2022/08/26 01:16:32;;;;;;;;;;;21.20;99.90;;;;;;6307292;22;19937;-83
2022/08/26 01:19:33;;;;;;;;;;;;;;;;;;;;;
2022/08/26 01:22:25;;;;;;;;;;;21.20;99.90;;;;;;6306962;22;19915;-82
2022/08/26 01:24:58;;;;;;;;;;;21.20;99.90;;;;;;6305147;22;19957;-82
2022/08/26 01:27:29;;;;;;;;;;;21.10;99.90;;;;;;6307028;22;20256;-82
2022/08/26 01:33:57;;;;;;;;;;;21.10;99.90;;;;;;6306409;22;19918;-82
2022/08/26 01:36:42;;;;;;;;;;;21.00;99.90;;;;;;6306763;22;20226;-82
2022/08/26 01:39:20;;;;;;;;;;;21.10;99.90;;;;;;6305809;22;19914;-82
2022/08/26 01:41:58;;;;;;;;;;;21.00;99.90;;;;;;6305261;22;19922;-82
2022/08/26 01:44:36;;;;;;;;;;;21.00;99.90;;;;;;6304724;22;19919;-82
2022/08/26 01:47:27;;;;;;;;;;;21.00;99.90;;;;;;6305918;22;19918;-82
2022/08/26 01:50:06;;;;;;;;;;;21.00;99.90;;;;;;6306031;22;19915;-82
2022/08/26 01:52:51;;;;;;;;;;;21.00;99.90;;;;;;6306090;22;19914;-82
2022/08/26 01:55:40;;;;;;;;;;;20.90;99.90;;;;;;6306278;22;19918;-82
2022/08/26 01:58:35;;;;;;;;;;;;;;;;;;;;;
2022/08/26 02:01:11;;;;;;;;;;;20.90;99.90;;;;;;6305922;22;19990;-82
2022/08/26 02:04:19;;;;;;;;;;;21.00;99.90;;;;;;6306389;22;19922;-82
2022/08/26 02:07:06;;;;;;;;;;;21.10;99.90;;;;;;6306006;22;19993;-83
2022/08/26 02:09:51;;;;;;;;;;;21.00;99.90;;;;;;6305915;22;19915;-82
2022/08/26 02:15:39;;;;;;;;;;;21.00;99.90;;;;;;6306716;22;19920;-82
2022/08/26 02:18:19;;;;;;;;;;;21.00;99.90;;;;;;6278031;22;19946;-82
2022/08/26 02:20:58;;;;;;;;;;;21.10;99.90;;;;;;6281302;22;19915;-82
2022/08/26 02:23:39;;;;;;;;;;;21.20;99.90;;;;;;6278618;22;19926;-82
2022/08/26 02:26:22;;;;;;;;;;;21.10;99.90;;;;;;6307340;22;19919;-82
2022/08/26 02:29:23;;;;;;;;;;;21.00;99.90;;;;;;6278437;22;20296;-81
2022/08/26 02:32:11;;;;;;;;;;;21.00;99.90;;;;;;6151743;23;19916;-83
2022/08/26 02:34:49;;;;;;;;;;;20.90;99.90;;;;;;6150340;23;20311;-82
2022/08/26 02:37:28;;;;;;;;;;;;;;;;;;;;;
2022/08/26 02:40:09;;;;;;;;;;;21.00;99.90;;;;;;6151603;23;19916;-82
2022/08/26 02:42:53;;;;;;;;;;;21.00;99.90;;;;;;6151687;23;19921;-82
2022/08/26 02:45:26;;;;;;;;;;;21.10;99.90;;;;;;6123721;23;19921;-81
2022/08/26 02:48:20;;;;;;;;;;;21.10;99.90;;;;;;6123894;23;19917;-82
2022/08/26 02:50:55;;;;;;;;;;;21.10;99.90;;;;;;6076405;23;19923;-82
2022/08/26 02:53:29;;;;;;;;;;;21.00;99.90;;;;;;6123971;23;19951;-82
2022/08/26 02:56:20;;;;;;;;;;;21.00;99.90;;;;;;6124795;23;20237;-82
2022/08/26 02:58:56;;;;;;;;;;;21.10;99.90;;;;;;6123517;23;19917;-83
2022/08/26 03:01:39;;;;;;;;;;;;;;;;;;;;;
2022/08/26 03:04:30;;;;;;;;;;;20.90;99.90;;;;;;6123996;23;20400;-82
2022/08/26 03:07:23;;;;;;;;;;;20.80;99.90;;;;;;6141883;22;19924;-83
2022/08/26 03:10:18;;;;;;;;;;;20.80;99.90;;;;;;6277268;22;19915;-82
2022/08/26 03:12:57;;;;;;;;;;;20.80;99.90;;;;;;6198512;22;20330;-82
2022/08/26 03:19:02;;;;;;;;;;;20.90;99.90;;;;;;6276639;22;19957;-82
2022/08/26 03:21:33;;;;;;;;;;;21.00;99.90;;;;;;6250375;22;19915;-82
2022/08/26 03:24:04;;;;;;;;;;;21.00;99.90;;;;;;6276071;22;20330;-82
2022/08/26 03:26:37;;;;;;;;;;;21.00;99.90;;;;;;6198285;22;19916;-82
2022/08/26 03:32:15;;;;;;;;;;;21.00;99.90;;;;;;6275206;22;20531;-82
2022/08/26 03:35:17;;;;;;;;;;;;;;;;;;;;;
2022/08/26 03:52:16;;;;;;;;;;;20.90;99.90;;;;;;6305158;22;19964;-83
2022/08/26 03:54:59;;;;;;;;;;;20.80;99.90;;;;;;6307902;22;19919;-82
2022/08/26 03:57:43;;;;;;;;;;;20.80;99.90;;;;;;6308394;22;20379;-83
2022/08/26 04:00:16;;;;;;;;;;;20.80;99.90;;;;;;6308532;22;19941;-83
2022/08/26 04:02:59;;;;;;;;;;;20.80;99.90;;;;;;6279328;22;19954;-82
2022/08/26 04:05:39;;;;;;;;;;;20.90;99.90;;;;;;6283327;22;20002;-83
2022/08/26 04:08:12;;;;;;;;;;;20.90;99.90;;;;;;6308280;22;19919;-82
2022/08/26 04:10:51;;;;;;;;;;;20.80;99.90;;;;;;6307841;22;19985;-83
2022/08/26 04:13:42;;;;;;;;;;;20.80;99.90;;;;;;6307958;22;19922;-82
2022/08/26 04:16:29;;;;;;;;;;;20.80;99.90;;;;;;6307672;22;19918;-82
2022/08/26 04:19:06;;;;;;;;;;;20.70;99.90;;;;;;6308612;22;19918;-82
2022/08/26 04:21:40;;;;;;;;;;;20.70;99.90;;;;;;6280918;22;19915;-82
2022/08/26 04:24:10;;;;;;;;;;;20.70;99.90;;;;;;6279965;22;19915;-82
2022/08/26 04:26:39;;;;;;;;;;;20.70;99.90;;;;;;6307781;22;19981;-82
2022/08/26 04:29:14;;;;;;;;;;;20.70;99.90;;;;;;6307832;22;19921;-82
2022/08/26 04:35:07;;;;;;;;;;;20.80;99.90;;;;;;6212649;23;20350;-82
2022/08/26 04:37:42;;;;;;;;;;;20.70;99.90;;;;;;6209563;23;19916;-82
2022/08/26 04:40:21;;;;;;;;;;;20.70;99.90;;;;;;6212989;23;19927;-82
2022/08/26 04:42:51;;;;;;;;;;;20.60;99.90;;;;;;6212987;23;19958;-82
2022/08/26 04:45:21;;;;;;;;;;;20.60;99.90;;;;;;6187324;23;19938;-83
2022/08/26 04:47:55;;;;;;;;;;;20.70;99.90;;;;;;6212813;23;20352;-82
2022/08/26 04:50:29;;;;;;;;;;;20.60;99.90;;;;;;6188759;23;19922;-82
2022/08/26 05:04:24;;;;;;;;;;;20.70;99.90;;;;;;6224309;23;19919;-81
2022/08/26 05:06:59;;;;;;;;;;;20.70;99.90;;;;;;6213473;23;20014;-82
2022/08/26 05:09:29;;;;;;;;;;;20.70;99.90;;;;;;6187750;23;20023;-82
2022/08/26 05:12:08;;;;;;;;;;;20.70;99.90;;;;;;6235512;22;20330;-82
2022/08/26 05:14:40;;;;;;;;;;;20.60;99.90;;;;;;6279171;22;19994;-82
2022/08/26 05:17:08;;;;;;;;;;;20.60;99.90;;;;;;6251067;22;19919;-82
2022/08/26 05:19:41;;;;;;;;;;;20.60;99.90;;;;;;6282166;22;19919;-83
2022/08/26 05:22:18;;;;;;;;;;;20.60;99.90;;;;;;6256970;22;19915;-82
2022/08/26 05:25:01;;;;;;;;;;;20.60;99.90;;;;;;6280830;22;20318;-82
2022/08/26 05:27:46;;;;;;;;;;;20.50;99.90;;;;;;6281490;22;19974;-82
2022/08/26 05:30:19;;;;;;;;;;;20.60;99.90;;;;;;6279220;22;19915;-82
2022/08/26 05:33:02;;;;;;;;;;;20.60;99.90;;;;;;6252971;22;19915;-83
2022/08/26 05:35:36;;;;;;;;;;;20.60;99.90;;;;;;6296387;22;19915;-82
2022/08/26 05:38:19;;;;;;;;;;;20.60;99.90;;;;;;6300820;22;19911;-82
2022/08/26 05:40:50;;;;;;;;;;;20.60;99.90;;;;;;6300401;22;19963;-81
2022/08/26 05:43:31;;;;;;;;;;;20.60;99.90;;;;;;6302344;22;19911;-82
2022/08/26 05:46:21;;;;;;;;;;;20.60;99.90;;;;;;6302028;22;19915;-81
2022/08/26 05:49:05;;;;;;;;;;;20.60;99.90;;;;;;6301771;22;19926;-81
2022/08/26 05:51:46;;;;;;;;;;;20.60;99.90;;;;;;6277904;22;19938;-82
2022/08/26 05:54:22;;;;;;;;;;;20.60;99.90;;;;;;6275212;22;20135;-82
2022/08/26 05:57:13;;;;;;;;;;;;;;;;;;;;;
2022/08/26 05:59:51;;;;;;;;;;;20.60;99.90;;;;;;6302241;22;19906;-82
2022/08/26 06:02:22;;;;;;;;;;;20.60;99.90;;;;;;6301256;22;19922;-81
2022/08/26 06:05:07;;;;;;;;;;;;;;;;;;;;;
2022/08/26 06:11:16;;;;;;;;;;;20.70;99.90;;;;;;6276085;22;19919;-82
2022/08/26 06:13:54;;;;;;;;;;;20.80;99.90;;;;;;6248943;22;19947;-82
2022/08/26 06:16:28;;;;;;;;;;;20.80;99.90;;;;;;6198192;22;19915;-82
2022/08/26 06:19:02;;;;;;;;;;;20.80;99.90;;;;;;6274993;22;19921;-82
2022/08/26 06:21:30;;;;;;;;;;;20.80;99.90;;;;;;6276705;22;19961;-82
2022/08/26 06:27:12;;;;;;;;;;;21.00;99.90;;;;;;6275830;22;20326;-82
2022/08/26 06:29:45;;;;;;;;;;;21.00;99.90;;;;;;6249106;22;19921;-82
2022/08/26 06:32:16;;;;;;;;;;;21.00;99.90;;;;;;6274829;22;20663;-82
2022/08/26 06:34:46;;;;;;;;;;;21.00;99.90;;;;;;6248636;22;19915;-82
2022/08/26 06:37:13;;;;;;;;;;;21.00;99.90;;;;;;6275828;22;19922;-82
2022/08/26 06:39:45;;;;;;;;;;;21.00;99.90;;;;;;6249536;22;19961;-82
2022/08/26 06:42:11;;;;;;;;;;;21.10;99.90;;;;;;6275821;22;20281;-82
2022/08/26 06:44:46;;;;;;;;;;;21.10;99.90;;;;;;6249945;22;19919;-82
2022/08/26 06:47:17;;;;;;;;;;;21.10;99.90;;;;;;6276442;22;19922;-82
2022/08/26 06:49:50;;;;;;;;;;;21.20;99.90;;;;;;6276377;22;19915;-82
2022/08/26 06:56:21;;;;;;;;;;;21.20;99.90;;;;;;6304436;22;19918;-83
2022/08/26 06:59:01;;;;;;;;;;;21.20;99.90;;;;;;6279098;22;20446;-83
2022/08/26 07:04:49;;;;;;;;;;;;;;;;;;;;;
2022/08/26 07:07:29;;;;;;;;;;;21.20;99.90;;;;;;6299928;22;19930;-86
2022/08/26 07:32:49;;;;;;;;;;;21.10;99.90;;;;;;6297539;22;20329;-84
2022/08/26 07:38:50;;;;;;;;;;;21.30;99.90;;;;;;6289336;22;19919;-83
2022/08/26 07:51:53;;;;;;;;;;;21.50;99.90;;;;;;6109806;23;19971;-86
2022/08/26 07:55:10;;;;;;;;;;;21.60;99.90;;;;;;6123080;23;19917;-86
2022/08/26 07:57:37;;;;;;;;;;;21.60;99.90;;;;;;6123981;23;19948;-84
2022/08/26 08:00:25;;;;;;;;;;;22.20;99.90;;;;;;6124659;23;19921;-89
2022/08/26 08:02:58;;;;;;;;;;;22.20;99.90;;;;;;6124457;23;19921;-84
2022/08/26 08:05:31;;;;;;;;;;;22.20;99.90;;;;;;6121929;23;19962;-83
2022/08/26 08:11:32;;;;;;;;;;;22.00;99.90;;;;;;6124292;23;19912;-83
2022/08/26 08:14:13;;;;;;;;;;;22.10;99.90;;;;;;6099609;23;19927;-84
2022/08/26 08:19:45;;;;;;;;;;;22.20;99.90;;;;;;6096975;23;19916;-84
2022/08/26 08:22:20;;;;;;;;;;;22.20;99.90;;;;;;6124805;23;19917;-85
2022/08/26 08:32:02;;;;;;;;;;;22.30;99.90;;;;;;6282217;22;19914;-83
2022/08/26 08:34:43;;;;;;;;;;;22.50;99.90;;;;;;6304476;22;19915;-85
2022/08/26 08:40:10;;;;;;;;;;;22.60;99.90;;;;;;6305759;22;19914;-85
2022/08/26 08:46:13;;;;;;;;;;;22.70;99.90;;;;;;6301183;22;19918;-85
2022/08/26 08:48:58;;;;;;;;;;;22.60;99.90;;;;;;6312736;22;19922;-91
2022/08/26 09:01:52;;;;;;;;;;;22.70;99.90;;;;;;6285951;22;19933;-89
2022/08/26 09:05:07;;;;;;;;;;;23.30;99.90;;;;;;6279840;22;19919;-88
2022/08/26 09:08:13;;;;;;;;;;;22.50;99.90;;;;;;6251815;22;19951;-90
2022/08/26 09:14:18;;;;;;;;;;;22.00;99.90;;;;;;6287956;22;19910;-87
2022/08/26 09:17:15;;;;;;;;;;;22.30;99.90;;;;;;6216722;22;19915;-90
2022/08/26 09:25:44;;;;;;;;;;;22.30;99.90;;;;;;6300561;22;19922;-92
2022/08/26 10:25:19;;;;;;;;;;;;;;;;;;;;;
2022/08/26 11:46:54;;;;;;;;;;;22.00;99.90;;;;;;6246064;22;19973;-90
2022/08/26 11:49:23;;;;;;;;;;;21.90;99.90;;;;;;6245307;23;19923;-89
2022/08/26 11:55:30;;;;;;;;;;;21.90;99.90;;;;;;6240497;23;19922;-88
2022/08/26 11:58:28;;;;;;;;;;;21.70;99.90;;;;;;6095596;23;19917;-86
2022/08/26 12:01:09;;;;;;;;;;;21.50;99.90;;;;;;6071380;23;20237;-84
2022/08/26 12:03:52;;;;;;;;;;;21.30;99.90;;;;;;6070548;23;19921;-85
2022/08/26 12:18:48;;;;;;;;;;;21.00;99.90;;;;;;6276474;22;19915;-87
2022/08/26 12:21:46;;;;;;;;;;;21.10;99.90;;;;;;6249589;22;20345;-85
2022/08/26 12:24:39;;;;;;;;;;;21.00;99.90;;;;;;6224995;22;20310;-85
2022/08/26 12:27:26;;;;;;;;;;;21.00;99.90;;;;;;6277053;22;19915;-85
2022/08/26 12:30:07;;;;;;;;;;;21.10;99.90;;;;;;6249673;22;19915;-85
2022/08/26 12:32:46;;;;;;;;;;;21.00;99.90;;;;;;6276388;22;19942;-83
2022/08/26 12:35:34;;;;;;;;;;;21.00;99.90;;;;;;6276871;22;19911;-85
2022/08/26 12:38:08;;;;;;;;;;;20.90;99.90;;;;;;6251546;22;20331;-86
2022/08/26 12:40:45;;;;;;;;;;;20.80;99.90;;;;;;6277777;22;19964;-85
2022/08/26 12:43:33;;;;;;;;;;;20.90;99.90;;;;;;6278529;22;20314;-85
2022/08/26 12:46:15;;;;;;;;;;;21.00;99.90;;;;;;6253807;22;19915;-87
2022/08/26 12:48:43;;;;;;;;;;;21.10;99.90;;;;;;6252815;22;19915;-85
2022/08/26 12:51:27;;;;;;;;;;;21.10;99.90;;;;;;6250155;22;19951;-85
2022/08/26 12:54:01;;;;;;;;;;;21.10;99.90;;;;;;6251298;22;19923;-89
2022/08/26 12:56:29;;;;;;;;;;;21.20;99.90;;;;;;6226719;22;20334;-85
2022/08/26 12:59:03;;;;;;;;;;;21.10;99.90;;;;;;6250255;22;19923;-86
2022/08/26 13:01:41;;;;;;;;;;;21.10;99.90;;;;;;6251264;22;19915;-85
2022/08/26 13:04:29;;;;;;;;;;;21.10;99.90;;;;;;6248972;22;20305;-87
2022/08/26 13:07:16;;;;;;;;;;;21.00;99.90;;;;;;6277356;22;19998;-86
2022/08/26 13:10:01;;;;;;;;;;;20.80;99.90;;;;;;6251904;22;19915;-84
2022/08/26 13:12:52;;;;;;;;;;;20.90;99.90;;;;;;6249813;22;19922;-87
2022/08/26 13:18:12;;;;;;;;;;;20.70;99.90;;;;;;6246088;22;19942;-86
2022/08/26 13:20:42;;;;;;;;;;;20.80;99.90;;;;;;6219257;23;19916;-86
2022/08/26 13:23:09;;;;;;;;;;;20.60;99.90;;;;;;6218607;23;19950;-85
2022/08/26 13:25:35;;;;;;;;;;;20.60;99.90;;;;;;6219009;23;20342;-86
2022/08/26 13:28:02;;;;;;;;;;;20.60;99.90;;;;;;6246298;23;20345;-84
2022/08/26 13:30:29;;;;;;;;;;;20.70;99.90;;;;;;6246390;23;19915;-87
2022/08/26 13:32:57;;;;;;;;;;;20.70;99.90;;;;;;6219212;23;19922;-86
2022/08/26 13:35:26;;;;;;;;;;;20.80;99.90;;;;;;6245756;23;20353;-86
2022/08/26 13:37:52;;;;;;;;;;;20.70;99.90;;;;;;6218226;23;19924;-86
2022/08/26 13:40:18;;;;;;;;;;;20.80;99.90;;;;;;6194092;23;20322;-88
2022/08/26 13:42:44;;;;;;;;;;;20.70;99.90;;;;;;6219010;23;20346;-86
2022/08/26 13:45:10;;;;;;;;;;;20.80;99.90;;;;;;6191721;23;19915;-82
2022/08/26 13:47:36;;;;;;;;;;;20.70;99.90;;;;;;6218410;23;20224;-84
2022/08/26 13:50:05;;;;;;;;;;;20.80;99.90;;;;;;6219083;23;20350;-84
2022/08/26 13:52:31;;;;;;;;;;;20.90;99.90;;;;;;6245409;23;19919;-87
2022/08/26 14:05:06;;;;;;;;;;;20.70;99.90;;;;;;6247422;23;19918;-92
2022/08/26 14:07:53;;;;;;;;;;;20.60;99.90;;;;;;6169578;23;19989;-87
2022/08/26 14:16:23;;;;;;;;;;;20.60;99.90;;;;;;6310880;22;19942;-88
2022/08/26 14:19:00;;;;;;;;;;;20.50;99.90;;;;;;6311398;22;19975;-88
2022/08/26 14:21:47;;;;;;;;;;;20.50;99.90;;;;;;6312583;22;20337;-89
2022/08/26 14:41:35;;;;;;;;;;;20.40;99.90;;;;;;6339010;22;19910;-87
2022/08/26 14:44:17;;;;;;;;;;;20.40;99.90;;;;;;6338236;22;19919;-85
2022/08/26 14:46:52;;;;;;;;;;;20.30;99.90;;;;;;6338663;22;19943;-85
2022/08/26 14:49:27;;;;;;;;;;;20.30;99.90;;;;;;6310754;22;19910;-87
2022/08/26 14:51:56;;;;;;;;;;;20.30;99.90;;;;;;6311232;22;19925;-92
2022/08/26 14:54:28;;;;;;;;;;;20.30;99.90;;;;;;6338157;22;19910;-87
2022/08/26 14:56:56;;;;;;;;;;;20.40;99.90;;;;;;6339096;22;19915;-91
2022/08/26 15:06:57;;;;;;;;;;;20.60;99.90;;;;;;6339163;22;20328;-83
2022/08/26 15:16:49;;;;;;;;;;;20.40;99.90;;;;;;6334308;22;19926;-86
2022/08/26 15:19:23;;;;;;;;;;;20.40;99.90;;;;;;6258816;22;19979;-90
2022/08/26 15:22:05;;;;;;;;;;;20.30;99.90;;;;;;6286155;22;19918;-89
2022/08/26 15:24:47;;;;;;;;;;;20.30;99.90;;;;;;6310432;22;19937;-86
2022/08/26 16:07:39;;;;;;;;;;;20.00;99.90;;;;;;6336977;22;19915;-85
2022/08/26 16:10:09;;;;;;;;;;;20.10;99.90;;;;;;6312685;22;19915;-87
2022/08/26 16:16:23;;;;;;;;;;;20.20;99.90;;;;;;6214715;23;19919;-87
2022/08/26 16:22:51;;;;;;;;;;;20.40;99.90;;;;;;6213820;23;20009;-83
2022/08/26 16:29:23;;;;;;;;;;;;;;;;;;;;;
2022/08/26 16:31:52;;;;;;;;;;;20.00;99.90;;;;;;6170491;22;19925;-89
2022/08/26 16:34:21;;;;;;;;;;;20.10;99.90;;;;;;6277246;22;19915;-87
2022/08/26 16:36:48;;;;;;;;;;;20.10;99.90;;;;;;6277457;22;19918;-84
2022/08/26 16:52:33;;;;;;;;;;;19.90;99.90;;;;;;6310245;22;19971;-87
2022/08/26 16:55:00;;;;;;;;;;;19.80;99.90;;;;;;6338716;22;20198;-84
2022/08/26 16:57:26;;;;;;;;;;;19.90;99.90;;;;;;6339606;22;19914;-84
2022/08/26 16:59:52;;;;;;;;;;;19.80;99.90;;;;;;6338743;22;19921;-84
2022/08/26 17:02:19;;;;;;;;;;;19.80;99.90;;;;;;6338812;22;19932;-83
2022/08/26 17:04:49;;;;;;;;;;;19.80;99.90;;;;;;6285845;22;20317;-83
2022/08/26 17:07:15;;;;;;;;;;;19.80;99.90;;;;;;6338033;22;19915;-83
2022/08/26 17:09:48;;;;;;;;;;;19.70;99.90;;;;;;6311778;22;19923;-84
2022/08/26 17:12:18;;;;;;;;;;;19.70;99.90;;;;;;6339007;22;19918;-89
2022/08/26 17:15:23;;;;;;;;;;;19.60;99.90;;;;;;6338146;22;19918;-84
2022/08/26 17:18:01;;;;;;;;;;;19.60;99.90;;;;;;6313000;22;19914;-89
2022/08/26 17:20:28;;;;;;;;;;;19.70;99.90;;;;;;6312715;22;19914;-85
2022/08/26 17:22:55;;;;;;;;;;;19.70;99.90;;;;;;6339836;22;19915;-88
2022/08/26 17:25:25;;;;;;;;;;;19.70;99.90;;;;;;6312851;22;20302;-88
2022/08/26 17:27:51;;;;;;;;;;;19.70;99.90;;;;;;6312857;22;19915;-87
2022/08/26 17:30:18;;;;;;;;;;;19.60;99.90;;;;;;6339535;22;19922;-87
2022/08/26 17:32:45;;;;;;;;;;;19.60;99.90;;;;;;6285269;22;19954;-86
2022/08/26 17:35:16;;;;;;;;;;;19.60;99.90;;;;;;6339047;22;19957;-86
2022/08/26 17:37:43;;;;;;;;;;;19.60;99.90;;;;;;6284667;22;19914;-91
2022/08/26 17:47:13;;;;;;;;;;;19.30;99.90;;;;;;6338851;22;19960;-86
2022/08/26 17:49:57;;;;;;;;;;;19.50;99.90;;;;;;6317723;22;19948;-86
2022/08/26 18:08:11;;;;;;;;;;;19.40;99.90;;;;;;6242407;22;19918;-87
2022/08/26 18:11:30;;;;;;;;;;;;;;;;;;;;;
2022/08/26 18:35:31;;;;;;;;;;;;;;;;;;;;;
2022/08/26 18:50:27;;;;;;;;;;;18.90;99.90;;;;;;6234128;22;19968;-86
2022/08/26 18:53:16;;;;;;;;;;;18.90;99.90;;;;;;6306767;22;19909;-85
2022/08/26 18:56:09;;;;;;;;;;;18.90;99.90;;;;;;6278638;22;19914;-92
2022/08/26 18:59:06;;;;;;;;;;;18.90;99.90;;;;;;6253732;22;19914;-89
2022/08/26 19:01:41;;;;;;;;;;;18.80;99.90;;;;;;6279103;22;19921;-85
2022/08/26 19:04:41;;;;;;;;;;;;;;;;;;;;;
2022/08/26 19:07:28;;;;;;;;;;;;;;;;;;;;;
2022/08/26 19:13:43;;;;;;;;;;;18.80;99.90;;;;;;6306714;22;19999;-85
2022/08/26 19:16:38;;;;;;;;;;;18.80;99.90;;;;;;6306632;22;19915;-89
2022/08/26 19:19:48;;;;;;;;;;;;;;;;;;;;;
2022/08/26 19:22:59;;;;;;;;;;;;;;;;;;;;;
2022/08/26 19:37:19;;;;;;;;;;;18.40;99.90;;;;;;6306995;22;19917;-87
2022/08/26 19:40:06;;;;;;;;;;;;;;;;;;;;;
2022/08/26 19:42:52;;;;;;;;;;;18.60;99.90;;;;;;6285705;22;19957;-90
2022/08/26 19:46:14;;;;;;;;;;;18.50;99.90;;;;;;6292597;22;19922;-89
2022/08/26 19:48:58;;;;;;;;;;;18.60;99.90;;;;;;6252701;22;19964;-91
2022/08/26 19:51:29;;;;;;;;;;;18.50;99.90;;;;;;6231042;22;19930;-90
2022/08/26 19:54:12;;;;;;;;;;;18.50;99.90;;;;;;6279278;22;19922;-90
2022/08/26 20:00:02;;;;;;;;;;;18.50;99.90;;;;;;6276219;22;19910;-88
2022/08/26 20:02:29;;;;;;;;;;;18.50;99.90;;;;;;6253568;22;20326;-88
2022/08/26 20:04:55;;;;;;;;;;;18.50;99.90;;;;;;6251873;22;19968;-86
2022/08/26 20:07:24;;;;;;;;;;;18.50;99.90;;;;;;6279563;22;19951;-89
2022/08/26 20:10:04;;;;;;;;;;;18.40;99.90;;;;;;6280678;22;19922;-90
2022/08/26 20:12:46;;;;;;;;;;;;;;;;;;;;;
2022/08/26 20:15:35;;;;;;;;;;;18.40;99.90;;;;;;6275162;22;20074;-87
2022/08/26 20:30:39;;;;;;;;;;;18.30;99.90;;;;;;6277393;22;19919;-86
2022/08/26 20:33:11;;;;;;;;;;;18.30;99.90;;;;;;6277294;22;19953;-87
2022/08/26 20:35:49;;;;;;;;;;;18.20;99.90;;;;;;6246663;22;19922;-84
2022/08/26 20:38:57;;;;;;;;;;;18.20;99.90;;;;;;6252168;22;19972;-86
2022/08/26 20:54:05;;;;;;;;;;;17.90;99.90;;;;;;6307489;22;20326;-83
2022/08/26 20:56:31;;;;;;;;;;;17.90;99.90;;;;;;6280309;22;20257;-85
2022/08/26 20:58:58;;;;;;;;;;;17.90;99.90;;;;;;6255455;22;19981;-86
2022/08/26 21:01:25;;;;;;;;;;;17.90;99.90;;;;;;6308274;22;19976;-86
2022/08/26 21:03:53;;;;;;;;;;;17.90;99.90;;;;;;6307727;22;19921;-87
2022/08/26 21:06:20;;;;;;;;;;;17.80;99.90;;;;;;6308285;22;19941;-89
2022/08/26 21:08:47;;;;;;;;;;;17.80;99.90;;;;;;6308461;22;20237;-85
2022/08/26 21:11:13;;;;;;;;;;;17.70;99.90;;;;;;6278820;22;19915;-84
2022/08/26 21:13:40;;;;;;;;;;;17.70;99.90;;;;;;6307835;22;20387;-85
2022/08/26 21:16:06;;;;;;;;;;;17.60;99.90;;;;;;6307938;22;19966;-87
2022/08/26 21:18:32;;;;;;;;;;;17.60;99.90;;;;;;6307341;22;19919;-88
2022/08/26 21:21:01;;;;;;;;;;;17.60;99.90;;;;;;6306696;22;19937;-85
2022/08/26 21:23:28;;;;;;;;;;;17.60;99.90;;;;;;6307114;22;19914;-84
2022/08/26 21:25:54;;;;;;;;;;;17.60;99.90;;;;;;6279320;22;19941;-84
2022/08/26 21:28:20;;;;;;;;;;;17.50;99.90;;;;;;6307009;22;19915;-86
2022/08/26 21:30:47;;;;;;;;;;;17.50;99.90;;;;;;6307430;22;19921;-85
2022/08/26 21:33:24;;;;;;;;;;;17.50;99.90;;;;;;6307932;22;19911;-84
2022/08/26 21:36:15;;;;;;;;;;;17.50;99.90;;;;;;6229074;22;19964;-83
2022/08/26 21:38:56;;;;;;;;;;;17.50;99.90;;;;;;6308206;22;19960;-87
2022/08/26 21:41:34;;;;;;;;;;;17.50;99.90;;;;;;6307511;22;19914;-86
2022/08/26 21:44:27;;;;;;;;;;;17.40;99.90;;;;;;6307325;22;19922;-84
2022/08/26 21:50:43;;;;;;;;;;;17.40;99.90;;;;;;6307206;22;19928;-85
2022/08/26 21:53:33;;;;;;;;;;;17.40;99.90;;;;;;6306266;22;19993;-86
2022/08/26 21:56:10;;;;;;;;;;;17.50;99.90;;;;;;6252942;22;20345;-84
2022/08/26 21:58:57;;;;;;;;;;;17.40;99.90;;;;;;6306642;22;19914;-86
2022/08/26 22:01:41;;;;;;;;;;;17.40;99.90;;;;;;6306582;22;19922;-85
2022/08/26 22:04:31;;;;;;;;;;;17.30;99.90;;;;;;6306445;22;20321;-86
2022/08/26 22:07:10;;;;;;;;;;;17.30;99.90;;;;;;6280586;22;20242;-86
2022/08/26 22:09:53;;;;;;;;;;;17.30;99.90;;;;;;6306463;22;19915;-87
2022/08/26 22:12:41;;;;;;;;;;;17.20;99.90;;;;;;6307387;22;20340;-84
2022/08/26 22:15:11;;;;;;;;;;;17.20;99.90;;;;;;6305010;22;20329;-85
2022/08/26 22:17:46;;;;;;;;;;;17.20;99.90;;;;;;6306897;22;20336;-84
2022/08/26 22:20:18;;;;;;;;;;;17.10;99.90;;;;;;6306124;22;19926;-83
2022/08/26 22:22:51;;;;;;;;;;;17.10;99.90;;;;;;6307143;22;20266;-83
2022/08/26 22:25:41;;;;;;;;;;;17.10;99.90;;;;;;6306777;22;19914;-86
2022/08/26 22:28:22;;;;;;;;;;;17.10;99.90;;;;;;6306956;22;19946;-83
2022/08/26 22:41:14;;;;;;;;;;;17.00;99.90;;;;;;6306309;22;19914;-84
2022/08/26 22:43:49;;;;;;;;;;;16.90;99.90;;;;;;6306924;22;19919;-82
2022/08/26 22:46:26;;;;;;;;;;;16.90;99.90;;;;;;6306983;22;19968;-82
2022/08/26 22:49:07;;;;;;;;;;;17.00;99.90;;;;;;6306282;22;20318;-81
2022/08/26 22:52:07;;;;;;;;;;;;;;;;;;;;;
2022/08/26 22:54:58;;;;;;;;;;;17.00;99.90;;;;;;6226981;22;19986;-82
2022/08/26 22:57:47;;;;;;;;;;;17.10;99.90;;;;;;6307148;22;19915;-84
2022/08/26 23:00:45;;;;;;;;;;;17.10;99.90;;;;;;6308015;22;19998;-85
2022/08/26 23:03:33;;;;;;;;;;;17.10;99.90;;;;;;6308067;22;19918;-85
2022/08/26 23:06:14;;;;;;;;;;;;;;;;;;;;;
2022/08/26 23:08:53;;;;;;;;;;;17.10;99.90;;;;;;6229394;22;19922;-85
2022/08/26 23:11:31;;;;;;;;;;;17.10;99.90;;;;;;6308887;22;19998;-85
2022/08/26 23:14:25;;;;;;;;;;;17.10;99.90;;;;;;6308294;22;19984;-83
2022/08/26 23:17:13;;;;;;;;;;;17.20;99.90;;;;;;6308697;22;19941;-86
2022/08/26 23:20:04;;;;;;;;;;;17.10;99.90;;;;;;6308987;22;19919;-85
2022/08/26 23:29:39;;;;;;;;;;;;;;;;;;;;;
2022/08/26 23:32:18;;;;;;;;;;;17.20;99.90;;;;;;6281374;22;19965;-86
2022/08/26 23:35:00;;;;;;;;;;;17.20;99.90;;;;;;6308260;22;20317;-85
2022/08/26 23:37:35;;;;;;;;;;;17.20;99.90;;;;;;6307945;22;20249;-86
2022/08/26 23:40:06;;;;;;;;;;;17.20;99.90;;;;;;6228106;22;19938;-87
2022/08/26 23:42:35;;;;;;;;;;;17.20;99.90;;;;;;6308614;22;19943;-85
2022/08/26 23:45:07;;;;;;;;;;;17.20;99.90;;;;;;6280770;22;19915;-84
2022/08/26 23:47:42;;;;;;;;;;;17.20;99.90;;;;;;6306366;22;19958;-86
2022/08/26 23:50:12;;;;;;;;;;;17.10;99.90;;;;;;6307687;22;20314;-83
2022/08/26 23:55:52;;;;;;;;;;;17.10;99.90;;;;;;6306859;22;19915;-84
2022/08/26 23:58:51;;;;;;;;;;;;;;;;;;;;;
